Terminal Aerodrome Forecast
Issued by NWS Tampa Bay Area, FL

Home | Current Version | Previous Version | Text Only | Print | Product List | Glossary Off
Versions: 1 2 3 4 5 6 7 8 9 10 11 12 13 14 15 16 17 18 19

000
FTUS42 KTBW 271700
TAFSRQ
TAF
KSRQ 271720Z 2718/2818 26007KT P6SM SKC
     FM271900 33014G20KT P6SM FEW040
     FM280000 36009KT P6SM SKC=

USA.gov is the U.S. government's official web portal to all federal, state and local government web resources and services.